DLH3A EHAM-EDDF
Flight info
| Callsign | DLH3A |
|---|---|
| Flight time | 0h 43m |
| Altitude | 35000 |
| Route | EDUPO Z739 MISGO DCT DIXAT DIXAT1A |
| Aircraft | A320/M-SDE3FGHIRWY/LB1 |
Departure
| Time | 2026-05-07 15:09 |
|---|---|
| Airport | Amsterdam Airport Schiphol (EHAM) |
Arrival
| Time | 2026-05-07 15:52 |
|---|---|
| Airport | Frankfurt Main Airport (EDDF) |
| Time | Latitude | Longitude | Altitude | Speed | Heading |
|---|---|---|---|---|---|
| 2026-05-07 14:29 | 52.30344 | 4.76432 | -1 ft | 0 kts | 237° |
| 2026-05-07 14:55 | 52.30350 | 4.76449 | -1 ft | 4 kts | 233° |
| 2026-05-07 14:55 | 52.30368 | 4.76478 | -1 ft | 4 kts | 204° |
| 2026-05-07 14:55 | 52.30390 | 4.76482 | -1 ft | 2 kts | 149° |
| 2026-05-07 14:55 | 52.30391 | 4.76481 | -1 ft | 0 kts | 148° |
| 2026-05-07 14:57 | 52.30329 | 4.76534 | -1 ft | 13 kts | 171° |
| 2026-05-07 14:58 | 52.30258 | 4.76425 | -1 ft | 19 kts | 238° |
| 2026-05-07 14:58 | 52.30175 | 4.76207 | -1 ft | 25 kts | 238° |
| 2026-05-07 14:58 | 52.30080 | 4.75959 | -1 ft | 27 kts | 238° |
| 2026-05-07 14:58 | 52.29976 | 4.75691 | -1 ft | 29 kts | 238° |
| 2026-05-07 14:59 | 52.29872 | 4.75420 | -1 ft | 26 kts | 238° |
| 2026-05-07 14:59 | 52.29868 | 4.75150 | -1 ft | 26 kts | 306° |
| 2026-05-07 14:59 | 52.29990 | 4.74921 | -1 ft | 27 kts | 311° |
| 2026-05-07 14:59 | 52.30115 | 4.74692 | 6 ft | 26 kts | 311° |
| 2026-05-07 15:00 | 52.30229 | 4.74480 | 11 ft | 25 kts | 311° |
| 2026-05-07 15:00 | 52.30338 | 4.74276 | -1 ft | 17 kts | 311° |
| 2026-05-07 15:00 | 52.30434 | 4.74196 | -1 ft | 17 kts | 356° |
| 2026-05-07 15:00 | 52.30562 | 4.74206 | -1 ft | 19 kts | 3° |
| 2026-05-07 15:01 | 52.30725 | 4.74223 | -1 ft | 28 kts | 3° |
| 2026-05-07 15:01 | 52.30926 | 4.74243 | -1 ft | 29 kts | 3° |
| 2026-05-07 15:01 | 52.31130 | 4.74261 | -1 ft | 30 kts | 2° |
| 2026-05-07 15:01 | 52.31306 | 4.74275 | -1 ft | 17 kts | 3° |
| 2026-05-07 15:02 | 52.31390 | 4.74380 | -1 ft | 18 kts | 82° |
| 2026-05-07 15:02 | 52.31395 | 4.74513 | -1 ft | 9 kts | 86° |
| 2026-05-07 15:02 | 52.31399 | 4.74617 | -1 ft | 9 kts | 86° |
| 2026-05-07 15:02 | 52.31429 | 4.74673 | -1 ft | 1 kts | 360° |
| 2026-05-07 15:06 | 52.31431 | 4.74673 | -1 ft | 2 kts | 359° |
| 2026-05-07 15:06 | 52.31499 | 4.74670 | -1 ft | 14 kts | 357° |
| 2026-05-07 15:06 | 52.31555 | 4.74664 | -1 ft | 5 kts | 356° |
| 2026-05-07 15:06 | 52.31558 | 4.74664 | -1 ft | 0 kts | 356° |
| 2026-05-07 15:07 | 52.31564 | 4.74664 | -1 ft | 5 kts | 356° |
| 2026-05-07 15:07 | 52.31639 | 4.74681 | 0 ft | 13 kts | 28° |
| 2026-05-07 15:08 | 52.31668 | 4.74798 | -1 ft | 6 kts | 89° |
| 2026-05-07 15:08 | 52.31668 | 4.74808 | -1 ft | 0 kts | 87° |
| 2026-05-07 15:08 | 52.31674 | 4.74982 | -3 ft | 53 kts | 86° |
| 2026-05-07 15:09 | 52.31708 | 4.75987 | -2 ft | 121 kts | 87° |
| 2026-05-07 15:09 | 52.31762 | 4.77657 | 163 ft | 158 kts | 85° |
| 2026-05-07 15:09 | 52.31814 | 4.79450 | 881 ft | 159 kts | 83° |
| 2026-05-07 15:09 | 52.31880 | 4.81287 | 1531 ft | 170 kts | 84° |
| 2026-05-07 15:10 | 52.31957 | 4.83333 | 1927 ft | 193 kts | 85° |
| 2026-05-07 15:10 | 52.32035 | 4.85666 | 2383 ft | 218 kts | 89° |
| 2026-05-07 15:10 | 52.31699 | 4.88209 | 2920 ft | 244 kts | 112° |
| 2026-05-07 15:10 | 52.31007 | 4.90827 | 3745 ft | 255 kts | 112° |
| 2026-05-07 15:11 | 52.30286 | 4.93523 | 4722 ft | 261 kts | 113° |
| 2026-05-07 15:11 | 52.29564 | 4.96279 | 5621 ft | 267 kts | 111° |
| 2026-05-07 15:11 | 52.28980 | 4.99163 | 6007 ft | 269 kts | 108° |
| 2026-05-07 15:11 | 52.28462 | 5.02103 | 6972 ft | 270 kts | 106° |
| 2026-05-07 15:12 | 52.27960 | 5.05087 | 7912 ft | 275 kts | 106° |
| 2026-05-07 15:12 | 52.27448 | 5.08136 | 8796 ft | 282 kts | 107° |
| 2026-05-07 15:12 | 52.26919 | 5.11258 | 9686 ft | 288 kts | 107° |
| 2026-05-07 15:12 | 52.26374 | 5.14418 | 10368 ft | 302 kts | 106° |
| 2026-05-07 15:13 | 52.25778 | 5.17841 | 10690 ft | 325 kts | 107° |
| 2026-05-07 15:13 | 52.25134 | 5.21511 | 11053 ft | 345 kts | 107° |
| 2026-05-07 15:13 | 52.24332 | 5.25254 | 11726 ft | 353 kts | 115° |
| 2026-05-07 15:13 | 52.23104 | 5.28734 | 12522 ft | 356 kts | 126° |
| 2026-05-07 15:14 | 52.21668 | 5.32039 | 13339 ft | 359 kts | 126° |
| 2026-05-07 15:14 | 52.20212 | 5.35382 | 14099 ft | 363 kts | 126° |
| 2026-05-07 15:14 | 52.18747 | 5.38747 | 14783 ft | 367 kts | 126° |
| 2026-05-07 15:14 | 52.17260 | 5.42166 | 15461 ft | 372 kts | 126° |
| 2026-05-07 15:15 | 52.15756 | 5.45622 | 16132 ft | 376 kts | 126° |
| 2026-05-07 15:15 | 52.14233 | 5.49113 | 16827 ft | 380 kts | 126° |
| 2026-05-07 15:15 | 52.12693 | 5.52628 | 17512 ft | 383 kts | 126° |
| 2026-05-07 15:15 | 52.11137 | 5.56178 | 18200 ft | 387 kts | 126° |
| 2026-05-07 15:16 | 52.09561 | 5.59765 | 18816 ft | 391 kts | 126° |
| 2026-05-07 15:16 | 52.07966 | 5.63387 | 19405 ft | 395 kts | 126° |
| 2026-05-07 15:16 | 52.06354 | 5.67035 | 20008 ft | 398 kts | 128° |
| 2026-05-07 15:16 | 52.04571 | 5.70493 | 20616 ft | 401 kts | 132° |
| 2026-05-07 15:17 | 52.02733 | 5.73933 | 21223 ft | 405 kts | 132° |
| 2026-05-07 15:17 | 52.00880 | 5.77390 | 21801 ft | 408 kts | 132° |
| 2026-05-07 15:17 | 51.99003 | 5.80878 | 22369 ft | 411 kts | 132° |
| 2026-05-07 15:17 | 51.97115 | 5.84384 | 22915 ft | 415 kts | 132° |
| 2026-05-07 15:18 | 51.95210 | 5.87928 | 23442 ft | 418 kts | 132° |
| 2026-05-07 15:18 | 51.93297 | 5.91498 | 23915 ft | 421 kts | 132° |
| 2026-05-07 15:18 | 51.91379 | 5.95092 | 24354 ft | 423 kts | 132° |
| 2026-05-07 15:18 | 51.89447 | 5.98706 | 24782 ft | 426 kts | 132° |
| 2026-05-07 15:19 | 51.87502 | 6.02333 | 25178 ft | 428 kts | 133° |
| 2026-05-07 15:19 | 51.85540 | 6.05985 | 25583 ft | 431 kts | 133° |
| 2026-05-07 15:19 | 51.83586 | 6.09599 | 25984 ft | 433 kts | 133° |
| 2026-05-07 15:19 | 51.81590 | 6.13255 | 26379 ft | 435 kts | 133° |
| 2026-05-07 15:20 | 51.79548 | 6.16975 | 26774 ft | 438 kts | 133° |
| 2026-05-07 15:20 | 51.77522 | 6.20665 | 27154 ft | 440 kts | 133° |
| 2026-05-07 15:20 | 51.75487 | 6.24380 | 27526 ft | 442 kts | 133° |
| 2026-05-07 15:20 | 51.73444 | 6.28109 | 27892 ft | 445 kts | 133° |
| 2026-05-07 15:21 | 51.71415 | 6.31807 | 28246 ft | 447 kts | 133° |
| 2026-05-07 15:21 | 51.69352 | 6.35565 | 28586 ft | 449 kts | 133° |
| 2026-05-07 15:21 | 51.67273 | 6.39344 | 28912 ft | 451 kts | 133° |
| 2026-05-07 15:21 | 51.65186 | 6.43132 | 29229 ft | 453 kts | 133° |
| 2026-05-07 15:22 | 51.63088 | 6.46935 | 29524 ft | 455 kts | 133° |
| 2026-05-07 15:22 | 51.60975 | 6.50754 | 29790 ft | 458 kts | 133° |
| 2026-05-07 15:22 | 51.58849 | 6.54593 | 30063 ft | 460 kts | 133° |
| 2026-05-07 15:22 | 51.56718 | 6.58442 | 30291 ft | 462 kts | 133° |
| 2026-05-07 15:23 | 51.54571 | 6.62313 | 30522 ft | 463 kts | 133° |
| 2026-05-07 15:23 | 51.52429 | 6.66170 | 30819 ft | 463 kts | 133° |
| 2026-05-07 15:23 | 51.50284 | 6.70029 | 31120 ft | 462 kts | 133° |
| 2026-05-07 15:23 | 51.48140 | 6.73871 | 31416 ft | 462 kts | 132° |
| 2026-05-07 15:24 | 51.45993 | 6.77705 | 31713 ft | 462 kts | 133° |
| 2026-05-07 15:24 | 51.43847 | 6.81533 | 32010 ft | 462 kts | 133° |
| 2026-05-07 15:24 | 51.41700 | 6.85363 | 32322 ft | 461 kts | 133° |
| 2026-05-07 15:24 | 51.39575 | 6.89207 | 32621 ft | 461 kts | 131° |
| 2026-05-07 15:25 | 51.37521 | 6.93151 | 32927 ft | 461 kts | 130° |
| 2026-05-07 15:25 | 51.35528 | 6.97168 | 33222 ft | 461 kts | 129° |
| 2026-05-07 15:25 | 51.33566 | 7.01224 | 33512 ft | 462 kts | 128° |
| 2026-05-07 15:25 | 51.31608 | 7.05289 | 33821 ft | 461 kts | 128° |
| 2026-05-07 15:26 | 51.29635 | 7.09347 | 34019 ft | 462 kts | 129° |
| 2026-05-07 15:26 | 51.27483 | 7.13149 | 33681 ft | 460 kts | 138° |
| 2026-05-07 15:26 | 51.24973 | 7.16338 | 32401 ft | 465 kts | 148° |
| 2026-05-07 15:26 | 51.22132 | 7.18796 | 31353 ft | 465 kts | 156° |
| 2026-05-07 15:27 | 51.19202 | 7.21013 | 30243 ft | 467 kts | 155° |
| 2026-05-07 15:27 | 51.16273 | 7.23293 | 28953 ft | 470 kts | 155° |
| 2026-05-07 15:27 | 51.13370 | 7.25601 | 28226 ft | 461 kts | 154° |
| 2026-05-07 15:27 | 51.10531 | 7.27891 | 27491 ft | 453 kts | 154° |
| 2026-05-07 15:28 | 51.07787 | 7.30152 | 26773 ft | 447 kts | 154° |
| 2026-05-07 15:28 | 51.05050 | 7.32432 | 26059 ft | 442 kts | 154° |
| 2026-05-07 15:28 | 51.02344 | 7.34688 | 25442 ft | 437 kts | 154° |
| 2026-05-07 15:28 | 50.99667 | 7.36917 | 24830 ft | 432 kts | 154° |
| 2026-05-07 15:29 | 50.97017 | 7.39117 | 24260 ft | 428 kts | 154° |
| 2026-05-07 15:29 | 50.94391 | 7.41288 | 23654 ft | 424 kts | 154° |
| 2026-05-07 15:29 | 50.91783 | 7.43428 | 22993 ft | 420 kts | 154° |
| 2026-05-07 15:29 | 50.89194 | 7.45546 | 22428 ft | 416 kts | 154° |
| 2026-05-07 15:30 | 50.86631 | 7.47641 | 21848 ft | 413 kts | 154° |
| 2026-05-07 15:30 | 50.84090 | 7.49714 | 21281 ft | 409 kts | 154° |
| 2026-05-07 15:30 | 50.81566 | 7.51773 | 20711 ft | 406 kts | 154° |
| 2026-05-07 15:30 | 50.79063 | 7.53811 | 20154 ft | 404 kts | 154° |
| 2026-05-07 15:31 | 50.76570 | 7.55836 | 19590 ft | 401 kts | 154° |
| 2026-05-07 15:31 | 50.74095 | 7.57844 | 19027 ft | 399 kts | 154° |
| 2026-05-07 15:31 | 50.71635 | 7.59838 | 18471 ft | 396 kts | 154° |
| 2026-05-07 15:31 | 50.69190 | 7.61819 | 17870 ft | 393 kts | 154° |
| 2026-05-07 15:32 | 50.66770 | 7.63779 | 17420 ft | 390 kts | 154° |
| 2026-05-07 15:32 | 50.64369 | 7.65727 | 16946 ft | 387 kts | 154° |
| 2026-05-07 15:32 | 50.61979 | 7.67664 | 16474 ft | 385 kts | 154° |
| 2026-05-07 15:32 | 50.59601 | 7.69580 | 16018 ft | 383 kts | 154° |
| 2026-05-07 15:33 | 50.57234 | 7.71484 | 15582 ft | 380 kts | 154° |
| 2026-05-07 15:33 | 50.54884 | 7.73377 | 15142 ft | 378 kts | 154° |
| 2026-05-07 15:33 | 50.53340 | 7.74622 | 14867 ft | 377 kts | 154° |
| 2026-05-07 15:33 | 50.50229 | 7.77125 | 14289 ft | 374 kts | 154° |
| 2026-05-07 15:34 | 50.48694 | 7.78356 | 14016 ft | 373 kts | 154° |
| 2026-05-07 15:34 | 50.45643 | 7.80802 | 13424 ft | 370 kts | 154° |
| 2026-05-07 15:34 | 50.43395 | 7.82756 | 13000 ft | 370 kts | 147° |
| 2026-05-07 15:34 | 50.41333 | 7.85170 | 12257 ft | 372 kts | 143° |
| 2026-05-07 15:35 | 50.39302 | 7.87680 | 11534 ft | 371 kts | 142° |
| 2026-05-07 15:35 | 50.37934 | 7.89382 | 11052 ft | 371 kts | 142° |
| 2026-05-07 15:35 | 50.35929 | 7.91887 | 10631 ft | 363 kts | 142° |
| 2026-05-07 15:35 | 50.34006 | 7.94291 | 10506 ft | 346 kts | 142° |
| 2026-05-07 15:36 | 50.31611 | 7.97377 | 10367 ft | 332 kts | 135° |
| 2026-05-07 15:36 | 50.30639 | 7.99276 | 10317 ft | 332 kts | 122° |
| 2026-05-07 15:36 | 50.29775 | 8.02558 | 10112 ft | 321 kts | 101° |
| 2026-05-07 15:36 | 50.29537 | 8.05921 | 10041 ft | 307 kts | 94° |
| 2026-05-07 15:37 | 50.29355 | 8.09199 | 10051 ft | 292 kts | 94° |
| 2026-05-07 15:37 | 50.29172 | 8.12323 | 10053 ft | 287 kts | 95° |
| 2026-05-07 15:37 | 50.28987 | 8.15425 | 10058 ft | 286 kts | 95° |
| 2026-05-07 15:37 | 50.28801 | 8.18521 | 10063 ft | 286 kts | 95° |
| 2026-05-07 15:38 | 50.28617 | 8.21621 | 10051 ft | 286 kts | 95° |
| 2026-05-07 15:38 | 50.28433 | 8.24719 | 10052 ft | 286 kts | 95° |
| 2026-05-07 15:38 | 50.28249 | 8.27797 | 9844 ft | 283 kts | 95° |
| 2026-05-07 15:38 | 50.28066 | 8.30822 | 9450 ft | 282 kts | 94° |
| 2026-05-07 15:39 | 50.27881 | 8.33915 | 9061 ft | 281 kts | 95° |
| 2026-05-07 15:39 | 50.27701 | 8.36908 | 8689 ft | 279 kts | 95° |
| 2026-05-07 15:39 | 50.27516 | 8.39916 | 8323 ft | 277 kts | 95° |
| 2026-05-07 15:39 | 50.27330 | 8.42910 | 7939 ft | 277 kts | 95° |
| 2026-05-07 15:40 | 50.27145 | 8.45891 | 7575 ft | 274 kts | 95° |
| 2026-05-07 15:40 | 50.26961 | 8.48844 | 7229 ft | 272 kts | 95° |
| 2026-05-07 15:40 | 50.26777 | 8.51777 | 7043 ft | 271 kts | 95° |
| 2026-05-07 15:40 | 50.26593 | 8.54712 | 7053 ft | 272 kts | 95° |
| 2026-05-07 15:41 | 50.26408 | 8.57663 | 7058 ft | 273 kts | 95° |
| 2026-05-07 15:41 | 50.26224 | 8.60608 | 7003 ft | 271 kts | 95° |
| 2026-05-07 15:41 | 50.26040 | 8.63496 | 6828 ft | 261 kts | 95° |
| 2026-05-07 15:41 | 50.25865 | 8.66272 | 6653 ft | 252 kts | 95° |
| 2026-05-07 15:42 | 50.25696 | 8.68974 | 6349 ft | 248 kts | 95° |
| 2026-05-07 15:42 | 50.25527 | 8.71627 | 6140 ft | 240 kts | 95° |
| 2026-05-07 15:42 | 50.25364 | 8.74175 | 6009 ft | 231 kts | 95° |
| 2026-05-07 15:42 | 50.25207 | 8.76632 | 5876 ft | 222 kts | 94° |
| 2026-05-07 15:43 | 50.25055 | 8.78990 | 5744 ft | 214 kts | 95° |
| 2026-05-07 15:43 | 50.24907 | 8.81267 | 5613 ft | 207 kts | 95° |
| 2026-05-07 15:43 | 50.24764 | 8.83475 | 5426 ft | 203 kts | 95° |
| 2026-05-07 15:43 | 50.24553 | 8.85642 | 5170 ft | 202 kts | 110° |
| 2026-05-07 15:44 | 50.23713 | 8.87328 | 5032 ft | 199 kts | 145° |
| 2026-05-07 15:44 | 50.22527 | 8.88461 | 5010 ft | 201 kts | 153° |
| 2026-05-07 15:44 | 50.21302 | 8.89473 | 5048 ft | 194 kts | 154° |
| 2026-05-07 15:44 | 50.20141 | 8.90411 | 5015 ft | 183 kts | 154° |
| 2026-05-07 15:45 | 50.19019 | 8.91318 | 5004 ft | 181 kts | 154° |
| 2026-05-07 15:45 | 50.17905 | 8.92213 | 5000 ft | 180 kts | 154° |
| 2026-05-07 15:45 | 50.16721 | 8.92713 | 4985 ft | 175 kts | 189° |
| 2026-05-07 15:45 | 50.15631 | 8.91993 | 5014 ft | 172 kts | 218° |
| 2026-05-07 15:46 | 50.13801 | 8.89665 | 5009 ft | 171 kts | 224° |
| 2026-05-07 15:46 | 50.12951 | 8.88389 | 5002 ft | 168 kts | 239° |
| 2026-05-07 15:46 | 50.12483 | 8.86745 | 5011 ft | 166 kts | 253° |
| 2026-05-07 15:47 | 50.12087 | 8.85047 | 4900 ft | 167 kts | 252° |
| 2026-05-07 15:47 | 50.11688 | 8.83347 | 4693 ft | 166 kts | 252° |
| 2026-05-07 15:47 | 50.11291 | 8.81661 | 4457 ft | 166 kts | 252° |
| 2026-05-07 15:47 | 50.10894 | 8.79973 | 4225 ft | 166 kts | 252° |
| 2026-05-07 15:48 | 50.10496 | 8.78287 | 3982 ft | 166 kts | 252° |
| 2026-05-07 15:48 | 50.10097 | 8.76596 | 3742 ft | 167 kts | 252° |
| 2026-05-07 15:48 | 50.09697 | 8.74903 | 3504 ft | 167 kts | 252° |
| 2026-05-07 15:48 | 50.09294 | 8.73201 | 3264 ft | 167 kts | 252° |
| 2026-05-07 15:49 | 50.08894 | 8.71509 | 3020 ft | 166 kts | 252° |
| 2026-05-07 15:49 | 50.08494 | 8.69823 | 2780 ft | 166 kts | 252° |
| 2026-05-07 15:49 | 50.08094 | 8.68135 | 2542 ft | 166 kts | 252° |
| 2026-05-07 15:49 | 50.07702 | 8.66483 | 2309 ft | 166 kts | 251° |
| 2026-05-07 15:50 | 50.07301 | 8.64793 | 2061 ft | 164 kts | 252° |
| 2026-05-07 15:50 | 50.06921 | 8.63197 | 1824 ft | 152 kts | 252° |
| 2026-05-07 15:50 | 50.06564 | 8.61699 | 1606 ft | 144 kts | 252° |
| 2026-05-07 15:50 | 50.06222 | 8.60258 | 1397 ft | 141 kts | 252° |
| 2026-05-07 15:51 | 50.05887 | 8.58846 | 1184 ft | 137 kts | 250° |
| 2026-05-07 15:51 | 50.05557 | 8.57484 | 997 ft | 132 kts | 251° |
| 2026-05-07 15:51 | 50.05239 | 8.56154 | 796 ft | 131 kts | 251° |
| 2026-05-07 15:51 | 50.04934 | 8.54833 | 617 ft | 128 kts | 249° |
| 2026-05-07 15:52 | 50.04624 | 8.53538 | 425 ft | 127 kts | 250° |
| 2026-05-07 15:52 | 50.04324 | 8.52289 | 350 ft | 112 kts | 249° |
| 2026-05-07 15:52 | 50.04114 | 8.51409 | 332 ft | 62 kts | 249° |
| 2026-05-07 15:52 | 50.03997 | 8.51052 | 327 ft | 34 kts | 230° |
| 2026-05-07 15:53 | 50.03870 | 8.50874 | 325 ft | 16 kts | 207° |
| 2026-05-07 15:53 | 50.03788 | 8.50892 | 333 ft | 14 kts | 98° |
| 2026-05-07 15:53 | 50.03819 | 8.51079 | 331 ft | 22 kts | 68° |
| 2026-05-07 15:53 | 50.03874 | 8.51315 | 334 ft | 24 kts | 69° |
| 2026-05-07 15:54 | 50.03936 | 8.51567 | 334 ft | 26 kts | 70° |
| 2026-05-07 15:54 | 50.04001 | 8.51844 | 335 ft | 28 kts | 70° |
| 2026-05-07 15:54 | 50.04071 | 8.52136 | 348 ft | 29 kts | 70° |
| 2026-05-07 15:54 | 50.04142 | 8.52435 | 354 ft | 30 kts | 70° |
| 2026-05-07 15:55 | 50.04215 | 8.52739 | 359 ft | 30 kts | 69° |
| 2026-05-07 15:55 | 50.04289 | 8.53049 | 360 ft | 31 kts | 69° |
| 2026-05-07 15:55 | 50.04362 | 8.53352 | 371 ft | 28 kts | 69° |
| 2026-05-07 15:55 | 50.04403 | 8.53637 | 375 ft | 28 kts | 84° |
| 2026-05-07 15:56 | 50.04423 | 8.53947 | 375 ft | 30 kts | 84° |
| 2026-05-07 15:56 | 50.04445 | 8.54282 | 375 ft | 32 kts | 84° |
| 2026-05-07 15:56 | 50.04427 | 8.54594 | 369 ft | 31 kts | 115° |
| 2026-05-07 15:56 | 50.04276 | 8.54788 | 358 ft | 23 kts | 155° |
| 2026-05-07 15:57 | 50.04134 | 8.54872 | 352 ft | 14 kts | 159° |
| 2026-05-07 15:57 | 50.04036 | 8.54929 | 356 ft | 15 kts | 159° |
| 2026-05-07 15:57 | 50.03935 | 8.54988 | 354 ft | 17 kts | 159° |
| 2026-05-07 15:57 | 50.03851 | 8.55112 | 351 ft | 18 kts | 86° |
| 2026-05-07 15:58 | 50.03890 | 8.55287 | 354 ft | 17 kts | 69° |
| 2026-05-07 15:58 | 50.03928 | 8.55448 | 357 ft | 15 kts | 70° |
| 2026-05-07 15:58 | 50.03964 | 8.55597 | 354 ft | 15 kts | 70° |
| 2026-05-07 15:58 | 50.03997 | 8.55737 | 358 ft | 13 kts | 69° |
| 2026-05-07 15:59 | 50.04025 | 8.55852 | 359 ft | 8 kts | 70° |
| 2026-05-07 15:59 | 50.04032 | 8.55884 | 357 ft | 0 kts | 69° |
| 2026-05-07 16:03 | 50.04034 | 8.55890 | 357 ft | 3 kts | 70° |
| 2026-05-07 16:03 | 50.04051 | 8.55964 | 351 ft | 11 kts | 70° |
| 2026-05-07 16:03 | 50.04080 | 8.56088 | 357 ft | 12 kts | 70° |
| 2026-05-07 16:03 | 50.04112 | 8.56215 | 359 ft | 14 kts | 69° |
| 2026-05-07 16:04 | 50.04144 | 8.56352 | 360 ft | 13 kts | 70° |
| 2026-05-07 16:04 | 50.04172 | 8.56471 | 361 ft | 13 kts | 70° |
| 2026-05-07 16:04 | 50.04207 | 8.56613 | 358 ft | 13 kts | 69° |
| 2026-05-07 16:04 | 50.04237 | 8.56739 | 360 ft | 14 kts | 70° |
| 2026-05-07 16:05 | 50.04321 | 8.56822 | 360 ft | 16 kts | 11° |
| 2026-05-07 16:05 | 50.04439 | 8.56855 | 361 ft | 18 kts | 9° |
| 2026-05-07 16:05 | 50.04565 | 8.56897 | 362 ft | 19 kts | 13° |
| 2026-05-07 16:05 | 50.04709 | 8.56974 | 360 ft | 23 kts | 25° |
| 2026-05-07 16:06 | 50.04801 | 8.57040 | 357 ft | 11 kts | 24° |
| 2026-05-07 16:06 | 50.04830 | 8.57060 | 358 ft | 5 kts | 24° |
| 2026-05-07 16:06 | 50.04836 | 8.57101 | 357 ft | 6 kts | 105° |
| 2026-05-07 16:06 | 50.04821 | 8.57158 | 360 ft | 5 kts | 116° |
| 2026-05-07 16:07 | 50.04816 | 8.57176 | 363 ft | 0 kts | 115° |